Time;durP1;ratioP1;P1;durP2;ratioP2;P2;SDS_P1;SDS_P2;PMS_P1;PMS_P2;Temp;Humidity;BMP_temperature;BMP_pressure;BME280_temperature;BME280_humidity;BME280_pressure;Samples;Min_cycle;Max_cycle;Signal;HPM_P1;HPM_P2
2023/10/09 00:03:06;;;;;;;8.32;3.50;;;;;;;;;;5044542;28;20035;-67
2023/10/09 00:05:45;;;;;;;8.88;3.22;;;;;;;;;;5044460;28;20116;-67
2023/10/09 00:08:30;;;;;;;10.52;3.67;;;;;;;;;;5049701;28;20017;-64
2023/10/09 00:10:57;;;;;;;9.05;3.05;;;;;;;;;;5049843;28;20098;-66
2023/10/09 00:13:32;;;;;;;9.27;3.03;;;;;;;;;;5041534;28;20100;-64
2023/10/09 00:16:08;;;;;;;7.93;3.35;;;;;;;;;;5050027;28;20032;-67
2023/10/09 00:18:34;;;;;;;12.38;3.38;;;;;;;;;;5049528;28;20509;-68
2023/10/09 00:21:12;;;;;;;8.43;3.05;;;;;;;;;;5048922;28;20553;-67
2023/10/09 00:23:41;;;;;;;7.30;2.92;;;;;;;;;;5049412;28;20629;-65
2023/10/09 00:26:10;;;;;;;6.15;3.00;;;;;;;;;;5048880;28;20021;-67
2023/10/09 00:28:37;;;;;;;9.70;3.03;;;;;;;;;;5031954;28;20069;-66
2023/10/09 00:31:06;;;;;;;7.88;2.78;;;;;;;;;;5048987;28;20175;-66
2023/10/09 00:33:32;;;;;;;9.15;3.28;;;;;;;;;;5048814;28;20449;-66
2023/10/09 00:36:06;;;;;;;16.00;2.97;;;;;;;;;;5048408;28;20150;-64
2023/10/09 00:38:34;;;;;;;9.35;3.15;;;;;;;;;;5049040;28;20102;-65
2023/10/09 00:41:42;;;;;;;9.10;2.77;;;;;;;;;;5049590;28;20024;-65
2023/10/09 00:43:49;;;;;;;6.47;2.85;;;;;;;;;;5033774;28;20037;-67
2023/10/09 00:48:47;;;;;;;9.23;3.22;;;;;;;;;;5048651;28;20009;-66
2023/10/09 00:51:16;;;;;;;6.47;2.80;;;;;;;;;;5047341;28;20515;-65
2023/10/09 00:53:50;;;;;;;8.45;3.13;;;;;;;;;;5050490;28;20385;-64
2023/10/09 00:58:55;;;;;;;8.52;3.00;;;;;;;;;;5048753;28;20009;-66
2023/10/09 01:01:28;;;;;;;8.95;3.55;;;;;;;;;;5027520;28;20070;-66
2023/10/09 01:03:53;;;;;;;10.18;3.53;;;;;;;;;;5044034;28;20368;-67
2023/10/09 01:06:21;;;;;;;8.13;3.13;;;;;;;;;;5049213;28;20104;-67
2023/10/09 01:08:56;;;;;;;10.20;3.63;;;;;;;;;;5048156;28;20048;-67
2023/10/09 01:11:30;;;;;;;8.52;3.50;;;;;;;;;;5048663;28;20017;-67
2023/10/09 01:14:11;;;;;;;5.57;2.70;;;;;;;;;;5048049;28;20070;-67
2023/10/09 01:16:37;;;;;;;9.38;3.72;;;;;;;;;;5031713;28;20132;-66
2023/10/09 01:19:12;;;;;;;6.00;3.08;;;;;;;;;;5047946;28;20520;-64
2023/10/09 01:21:39;;;;;;;9.48;3.85;;;;;;;;;;5055300;28;20028;-68
2023/10/09 01:24:08;;;;;;;8.15;3.35;;;;;;;;;;5048590;28;20025;-67
2023/10/09 01:26:44;;;;;;;8.32;3.13;;;;;;;;;;5048254;28;20083;-66
2023/10/09 01:29:14;;;;;;;9.10;3.90;;;;;;;;;;5052702;28;20020;-68
2023/10/09 01:31:44;;;;;;;11.10;3.60;;;;;;;;;;5048425;28;20104;-66
2023/10/09 01:34:10;;;;;;;6.90;3.55;;;;;;;;;;5047744;28;20047;-66
2023/10/09 01:36:39;;;;;;;9.23;3.40;;;;;;;;;;5047413;28;20473;-65
2023/10/09 01:39:50;;;;;;;8.00;3.40;;;;;;;;;;5047709;28;20377;-68
2023/10/09 01:41:57;;;;;;;8.13;3.38;;;;;;;;;;5034848;28;20029;-67
2023/10/09 01:44:22;;;;;;;7.95;3.58;;;;;;;;;;5040344;28;20104;-67
2023/10/09 01:46:47;;;;;;;8.30;3.38;;;;;;;;;;5047150;28;20109;-66
2023/10/09 01:49:21;;;;;;;6.50;3.40;;;;;;;;;;5047455;28;20100;-67
2023/10/09 01:51:48;;;;;;;12.88;3.75;;;;;;;;;;5047781;28;20064;-67
2023/10/09 01:54:33;;;;;;;9.07;3.30;;;;;;;;;;5048894;28;20040;-65
2023/10/09 01:56:59;;;;;;;8.73;3.25;;;;;;;;;;5044454;28;20017;-67
2023/10/09 01:59:25;;;;;;;6.57;3.40;;;;;;;;;;5048004;28;20052;-66
2023/10/09 02:01:54;;;;;;;10.05;3.50;;;;;;;;;;5041455;28;20045;-66
2023/10/09 02:04:20;;;;;;;7.75;3.53;;;;;;;;;;5046674;28;20039;-67
2023/10/09 02:06:46;;;;;;;8.25;3.42;;;;;;;;;;5047405;28;20039;-65
2023/10/09 02:09:20;;;;;;;6.53;3.40;;;;;;;;;;5046849;28;20109;-69
2023/10/09 02:11:45;;;;;;;12.02;3.55;;;;;;;;;;5051678;28;20017;-65
2023/10/09 02:14:19;;;;;;;7.75;3.20;;;;;;;;;;5053485;28;20020;-67
2023/10/09 02:17:01;;;;;;;8.65;3.30;;;;;;;;;;5046817;28;20099;-67
2023/10/09 02:19:33;;;;;;;6.68;3.45;;;;;;;;;;5039531;28;20078;-66
2023/10/09 02:22:00;;;;;;;7.75;3.40;;;;;;;;;;5047086;28;20025;-64
2023/10/09 02:24:49;;;;;;;14.18;4.25;;;;;;;;;;5046903;28;20587;-68
2023/10/09 02:27:20;;;;;;;7.65;4.18;;;;;;;;;;5046777;28;20132;-66
2023/10/09 02:29:48;;;;;;;6.75;3.33;;;;;;;;;;5047074;28;20100;-65
2023/10/09 02:32:14;;;;;;;9.50;3.63;;;;;;;;;;5046802;28;20033;-65
2023/10/09 02:34:39;;;;;;;7.97;3.30;;;;;;;;;;5046356;28;20025;-67
2023/10/09 02:37:12;;;;;;;16.23;3.63;;;;;;;;;;5049332;28;20128;-65
2023/10/09 02:39:46;;;;;;;13.32;3.95;;;;;;;;;;5028948;28;20512;-67
2023/10/09 02:44:45;;;;;;;7.75;3.50;;;;;;;;;;5045854;28;20428;-64
2023/10/09 02:47:17;;;;;;;7.10;3.35;;;;;;;;;;5046450;28;20032;-66
2023/10/09 02:49:43;;;;;;;7.88;3.28;;;;;;;;;;5049361;28;20062;-67
2023/10/09 02:52:10;;;;;;;9.57;3.38;;;;;;;;;;5048545;28;20025;-65
2023/10/09 02:54:36;;;;;;;8.43;3.38;;;;;;;;;;5049632;28;20467;-66
2023/10/09 02:57:07;;;;;;;8.18;3.20;;;;;;;;;;5049419;28;20456;-68
2023/10/09 02:59:38;;;;;;;5.55;2.90;;;;;;;;;;5051920;28;20025;-66
2023/10/09 03:02:04;;;;;;;8.07;3.58;;;;;;;;;;5042064;28;20021;-68
2023/10/09 03:04:31;;;;;;;8.10;3.50;;;;;;;;;;5049576;28;20040;-69
2023/10/09 03:06:57;;;;;;;8.57;3.40;;;;;;;;;;5047418;28;20009;-66
2023/10/09 03:09:26;;;;;;;9.65;3.00;;;;;;;;;;5024830;28;20652;-66
2023/10/09 03:11:53;;;;;;;6.95;3.53;;;;;;;;;;5048722;28;20444;-68
2023/10/09 03:14:20;;;;;;;10.52;3.60;;;;;;;;;;5047192;28;20013;-65
2023/10/09 03:16:48;;;;;;;6.47;3.17;;;;;;;;;;5048680;28;20084;-66
2023/10/09 03:19:13;;;;;;;10.52;3.38;;;;;;;;;;5048142;28;20017;-66
2023/10/09 03:21:38;;;;;;;8.77;3.58;;;;;;;;;;5051539;28;20108;-65
2023/10/09 03:24:06;;;;;;;7.53;4.18;;;;;;;;;;5048893;28;20027;-66
2023/10/09 03:26:31;;;;;;;8.15;3.92;;;;;;;;;;5052321;28;20078;-65
2023/10/09 03:28:57;;;;;;;7.72;3.45;;;;;;;;;;5045971;28;20380;-66
2023/10/09 03:31:23;;;;;;;8.32;3.30;;;;;;;;;;5044773;28;20021;-67
2023/10/09 03:33:48;;;;;;;9.25;3.20;;;;;;;;;;5047799;28;20388;-65
2023/10/09 03:36:16;;;;;;;12.05;3.67;;;;;;;;;;5027598;28;20025;-65
2023/10/09 03:38:42;;;;;;;13.95;3.28;;;;;;;;;;5047352;28;20541;-65
2023/10/09 03:41:12;;;;;;;7.38;3.70;;;;;;;;;;5047090;28;20025;-65
2023/10/09 03:43:38;;;;;;;8.10;3.45;;;;;;;;;;5045683;28;20027;-67
2023/10/09 03:46:05;;;;;;;7.13;3.33;;;;;;;;;;5047290;28;20464;-66
2023/10/09 03:48:36;;;;;;;8.27;3.90;;;;;;;;;;5046250;28;20040;-65
2023/10/09 03:51:20;;;;;;;7.13;3.40;;;;;;;;;;5046067;28;20111;-66
2023/10/09 03:53:47;;;;;;;11.15;3.63;;;;;;;;;;5040574;28;20107;-66
2023/10/09 03:56:13;;;;;;;10.68;3.47;;;;;;;;;;5044942;28;20021;-64
2023/10/09 03:58:39;;;;;;;7.57;3.88;;;;;;;;;;5045717;28;20035;-67
2023/10/09 04:01:11;;;;;;;8.98;3.97;;;;;;;;;;5026749;28;20078;-65
2023/10/09 04:03:38;;;;;;;8.30;3.55;;;;;;;;;;5039986;28;20488;-65
2023/10/09 04:06:04;;;;;;;8.35;3.72;;;;;;;;;;5045191;28;20531;-64
2023/10/09 04:08:30;;;;;;;8.27;3.97;;;;;;;;;;5046513;28;20025;-68
2023/10/09 04:11:01;;;;;;;9.68;3.88;;;;;;;;;;5028279;28;20025;-67
2023/10/09 04:13:33;;;;;;;9.82;3.72;;;;;;;;;;5038381;28;20015;-65
2023/10/09 04:15:59;;;;;;;11.07;3.25;;;;;;;;;;5045624;28;20046;-64
2023/10/09 04:18:32;;;;;;;15.75;4.03;;;;;;;;;;5045871;28;20047;-65
2023/10/09 04:21:18;;;;;;;7.47;3.72;;;;;;;;;;5048929;28;20112;-65
2023/10/09 04:24:22;;;;;;;7.43;4.13;;;;;;;;;;5045818;28;20017;-67
2023/10/09 04:26:36;;;;;;;11.43;3.72;;;;;;;;;;5045749;28;20025;-67
2023/10/09 04:29:02;;;;;;;10.60;4.45;;;;;;;;;;5049299;28;20013;-64
2023/10/09 04:31:31;;;;;;;10.73;4.10;;;;;;;;;;5049238;28;20396;-67
2023/10/09 04:36:49;;;;;;;8.30;4.50;;;;;;;;;;5045011;28;20019;-67
2023/10/09 04:39:35;;;;;;;8.07;4.63;;;;;;;;;;5049613;28;20191;-67
2023/10/09 04:47:39;;;;;;;10.68;4.60;;;;;;;;;;5042211;28;20096;-68
2023/10/09 04:50:08;;;;;;;10.45;4.45;;;;;;;;;;5045594;28;20397;-65
2023/10/09 05:02:56;;;;;;;10.02;5.15;;;;;;;;;;5052906;28;20534;-63
2023/10/09 05:08:21;;;;;;;10.15;4.18;;;;;;;;;;5046640;28;20079;-66
2023/10/09 05:16:13;;;;;;;11.10;5.40;;;;;;;;;;5047223;28;20037;-66
2023/10/09 05:18:55;;;;;;;9.18;4.85;;;;;;;;;;5048106;28;20024;-64
2023/10/09 05:29:19;;;;;;;13.23;6.13;;;;;;;;;;5051696;28;20013;-68
2023/10/09 05:31:56;;;;;;;10.55;5.03;;;;;;;;;;5048067;28;20691;-65
2023/10/09 05:34:22;;;;;;;17.30;5.40;;;;;;;;;;5052319;28;20013;-66
2023/10/09 05:36:48;;;;;;;16.27;5.43;;;;;;;;;;5053757;28;20088;-64
2023/10/09 05:39:18;;;;;;;11.82;4.57;;;;;;;;;;5051249;28;20032;-67
2023/10/09 05:41:59;;;;;;;12.35;5.15;;;;;;;;;;5048549;28;20017;-67
2023/10/09 05:50:35;;;;;;;8.35;5.03;;;;;;;;;;5044402;28;20448;-68
2023/10/09 06:08:47;;;;;;;11.93;5.63;;;;;;;;;;5043336;28;20109;-66
2023/10/09 06:24:41;;;;;;;17.02;5.30;;;;;;;;;;5041815;28;20021;-64
2023/10/09 06:29:38;;;;;;;14.02;5.50;;;;;;;;;;5051638;28;20013;-67
2023/10/09 06:34:46;;;;;;;19.08;6.00;;;;;;;;;;5052175;28;20036;-66
2023/10/09 06:37:34;;;;;;;15.25;5.88;;;;;;;;;;5051712;28;20064;-66
2023/10/09 06:45:16;;;;;;;15.15;5.88;;;;;;;;;;5048082;28;20017;-68
2023/10/09 06:47:42;;;;;;;22.27;6.10;;;;;;;;;;5052613;28;20036;-67
2023/10/09 06:52:57;;;;;;;19.58;5.32;;;;;;;;;;5044072;28;20101;-68
2023/10/09 06:55:33;;;;;;;15.38;6.10;;;;;;;;;;5052155;28;20096;-66
2023/10/09 06:58:01;;;;;;;13.38;6.22;;;;;;;;;;5050610;28;20024;-69
2023/10/09 07:03:14;;;;;;;17.85;6.20;;;;;;;;;;5044549;28;20116;-67
2023/10/09 07:06:04;;;;;;;11.48;6.07;;;;;;;;;;5046660;28;20017;-67
2023/10/09 07:08:37;;;;;;;19.27;6.97;;;;;;;;;;5041418;28;20021;-66
2023/10/09 07:11:56;;;;;;;17.15;7.75;;;;;;;;;;5046064;28;20125;-68
2023/10/09 07:14:08;;;;;;;18.35;7.28;;;;;;;;;;5043156;28;20103;-63
2023/10/09 07:16:46;;;;;;;16.13;6.60;;;;;;;;;;5043410;28;20025;-68
2023/10/09 07:21:55;;;;;;;19.98;7.30;;;;;;;;;;5043664;28;20117;-67
2023/10/09 07:24:37;;;;;;;23.55;7.78;;;;;;;;;;5045982;28;20121;-64
2023/10/09 07:27:08;;;;;;;24.63;6.97;;;;;;;;;;5046237;28;20589;-65
2023/10/09 07:29:47;;;;;;;22.13;7.32;;;;;;;;;;5033679;28;20099;-66
2023/10/09 07:32:12;;;;;;;22.27;7.60;;;;;;;;;;5047437;28;20445;-68
2023/10/09 07:34:53;;;;;;;20.67;7.63;;;;;;;;;;5045450;28;20070;-64
2023/10/09 07:37:22;;;;;;;15.02;7.05;;;;;;;;;;5046640;28;20066;-68
2023/10/09 07:39:57;;;;;;;20.45;7.65;;;;;;;;;;5047671;28;20073;-65
2023/10/09 07:48:04;;;;;;;16.42;7.47;;;;;;;;;;4968719;28;20505;-63
2023/10/09 07:50:40;;;;;;;22.75;7.78;;;;;;;;;;5041922;28;20092;-67
2023/10/09 07:53:17;;;;;;;18.98;8.57;;;;;;;;;;5048384;28;20017;-67
2023/10/09 07:55:53;;;;;;;20.40;7.57;;;;;;;;;;5045534;28;20017;-68
2023/10/09 07:58:24;;;;;;;18.83;8.30;;;;;;;;;;5045824;28;20029;-67
2023/10/09 08:01:15;;;;;;;21.20;8.88;;;;;;;;;;5048512;28;20531;-64
2023/10/09 08:03:45;;;;;;;21.00;8.45;;;;;;;;;;5047245;28;20109;-69
2023/10/09 08:11:59;;;;;;;21.10;8.27;;;;;;;;;;5048131;28;20487;-67
2023/10/09 08:17:20;;;;;;;19.40;8.52;;;;;;;;;;5049209;28;20021;-67
2023/10/09 08:20:11;;;;;;;25.38;8.50;;;;;;;;;;5051941;28;20047;-65
2023/10/09 08:22:43;;;;;;;23.40;8.55;;;;;;;;;;5043789;28;20029;-67
2023/10/09 08:25:16;;;;;;;22.05;9.20;;;;;;;;;;5052395;28;20037;-67
2023/10/09 08:27:54;;;;;;;25.48;9.82;;;;;;;;;;5051071;28;20468;-65
2023/10/09 08:33:11;;;;;;;26.80;9.60;;;;;;;;;;5053253;28;20024;-67
2023/10/09 08:35:48;;;;;;;23.05;9.27;;;;;;;;;;5040908;28;20017;-66
2023/10/09 08:38:14;;;;;;;21.20;9.43;;;;;;;;;;5054200;28;20016;-68
2023/10/09 08:40:40;;;;;;;20.10;9.88;;;;;;;;;;5050459;28;20017;-65
2023/10/09 08:43:16;;;;;;;19.75;9.10;;;;;;;;;;5051821;28;20586;-66
2023/10/09 08:46:00;;;;;;;21.70;8.85;;;;;;;;;;5054961;28;20552;-64
2023/10/09 08:48:27;;;;;;;18.80;7.90;;;;;;;;;;5046266;28;20056;-66
2023/10/09 08:50:55;;;;;;;26.35;9.80;;;;;;;;;;5054245;28;20035;-68
2023/10/09 08:53:21;;;;;;;29.98;8.40;;;;;;;;;;5049267;28;20013;-67
2023/10/09 08:55:46;;;;;;;19.92;8.32;;;;;;;;;;5053524;28;20126;-68
2023/10/09 08:58:34;;;;;;;24.23;9.45;;;;;;;;;;5052014;28;20040;-65
2023/10/09 09:01:00;;;;;;;19.48;8.13;;;;;;;;;;5043915;28;20081;-67
2023/10/09 09:03:26;;;;;;;24.10;9.88;;;;;;;;;;5047120;28;20033;-67
2023/10/09 09:06:00;;;;;;;20.70;8.57;;;;;;;;;;5030901;28;20155;-66
2023/10/09 09:08:28;;;;;;;19.42;8.80;;;;;;;;;;5042264;28;20104;-66
2023/10/09 09:11:11;;;;;;;17.80;7.90;;;;;;;;;;5044518;28;20427;-67
2023/10/09 09:13:37;;;;;;;24.65;8.85;;;;;;;;;;5047222;28;20046;-67
2023/10/09 09:16:02;;;;;;;21.75;8.85;;;;;;;;;;5047647;28;20084;-66
2023/10/09 09:18:31;;;;;;;24.88;9.10;;;;;;;;;;5049475;28;20039;-66
2023/10/09 09:20:57;;;;;;;19.02;8.70;;;;;;;;;;5054790;28;20487;-67
2023/10/09 09:23:23;;;;;;;20.98;8.57;;;;;;;;;;5049017;28;20150;-69
2023/10/09 09:25:58;;;;;;;27.80;9.02;;;;;;;;;;5049116;28;20041;-68
2023/10/09 09:28:26;;;;;;;18.75;8.45;;;;;;;;;;5048448;28;20027;-68
2023/10/09 09:30:51;;;;;;;21.27;7.70;;;;;;;;;;5048593;28;20526;-69
2023/10/09 09:33:26;;;;;;;17.77;8.45;;;;;;;;;;5047497;28;20017;-68
2023/10/09 09:35:58;;;;;;;16.38;7.70;;;;;;;;;;5046600;28;20017;-65
2023/10/09 09:38:25;;;;;;;22.48;8.02;;;;;;;;;;5049400;28;20012;-67
2023/10/09 09:40:53;;;;;;;24.30;8.23;;;;;;;;;;5048680;28;20021;-64
2023/10/09 09:43:23;;;;;;;17.50;9.18;;;;;;;;;;5052990;28;20017;-67
2023/10/09 09:45:49;;;;;;;18.73;8.20;;;;;;;;;;5053874;28;20422;-68
2023/10/09 09:48:16;;;;;;;21.45;8.88;;;;;;;;;;5047418;28;20595;-66
2023/10/09 09:50:44;;;;;;;20.63;8.52;;;;;;;;;;5048967;28;20064;-65
2023/10/09 09:53:10;;;;;;;21.95;8.60;;;;;;;;;;5048756;28;20021;-67
2023/10/09 09:55:41;;;;;;;22.17;8.52;;;;;;;;;;5047618;28;20036;-65
2023/10/09 09:58:18;;;;;;;26.02;8.65;;;;;;;;;;5048003;28;20028;-69
2023/10/09 10:00:45;;;;;;;21.80;8.75;;;;;;;;;;5047244;28;20017;-66
2023/10/09 10:03:16;;;;;;;17.15;7.95;;;;;;;;;;5045322;28;20037;-67
2023/10/09 10:05:42;;;;;;;18.42;8.70;;;;;;;;;;5039710;28;20090;-69
2023/10/09 10:08:13;;;;;;;19.85;9.35;;;;;;;;;;5048124;28;20033;-67
2023/10/09 10:13:42;;;;;;;20.02;8.20;;;;;;;;;;5048270;28;20108;-68
2023/10/09 10:16:19;;;;;;;17.70;7.95;;;;;;;;;;5045859;28;20017;-68
2023/10/09 10:19:06;;;;;;;16.00;6.95;;;;;;;;;;5040449;28;20021;-68
2023/10/09 10:24:10;;;;;;;21.27;7.30;;;;;;;;;;5046383;28;20425;-65
2023/10/09 10:26:35;;;;;;;16.08;7.28;;;;;;;;;;5045684;28;20021;-66
2023/10/09 10:29:33;;;;;;;23.25;7.78;;;;;;;;;;5047629;28;20021;-66
2023/10/09 10:32:08;;;;;;;14.70;6.43;;;;;;;;;;5043954;28;20015;-67
2023/10/09 10:34:57;;;;;;;18.33;7.22;;;;;;;;;;5028281;28;20126;-65
2023/10/09 10:37:38;;;;;;;18.00;7.70;;;;;;;;;;5048357;28;20520;-65
2023/10/09 10:40:13;;;;;;;16.27;7.35;;;;;;;;;;5009749;28;20035;-67
2023/10/09 10:43:09;;;;;;;18.30;8.00;;;;;;;;;;5047704;28;20017;-66
2023/10/09 10:45:37;;;;;;;22.55;7.63;;;;;;;;;;5041331;28;20029;-66
2023/10/09 10:48:09;;;;;;;16.42;7.05;;;;;;;;;;5044338;28;20028;-66
2023/10/09 10:50:35;;;;;;;22.08;7.50;;;;;;;;;;5049553;28;20021;-65
2023/10/09 10:53:17;;;;;;;22.00;8.15;;;;;;;;;;5050853;28;20131;-68
2023/10/09 10:56:17;;;;;;;18.70;7.50;;;;;;;;;;5049602;28;20040;-70
2023/10/09 11:01:24;;;;;;;15.83;8.27;;;;;;;;;;5052044;28;20684;-67
2023/10/09 11:03:55;;;;;;;18.40;8.65;;;;;;;;;;5045761;28;20038;-68
2023/10/09 11:06:36;;;;;;;26.90;9.15;;;;;;;;;;5046738;28;20112;-67
2023/10/09 11:09:09;;;;;;;18.40;8.30;;;;;;;;;;5035753;28;20024;-68
2023/10/09 11:11:41;;;;;;;17.02;7.28;;;;;;;;;;5047121;28;20024;-66
2023/10/09 11:14:14;;;;;;;19.00;7.90;;;;;;;;;;5047182;28;20036;-67
2023/10/09 11:16:42;;;;;;;17.77;7.20;;;;;;;;;;5046196;28;20450;-68
2023/10/09 11:21:58;;;;;;;18.20;8.45;;;;;;;;;;5042738;28;20021;-65
2023/10/09 11:24:25;;;;;;;14.68;7.70;;;;;;;;;;5046851;28;20021;-68
2023/10/09 11:26:56;;;;;;;18.45;7.40;;;;;;;;;;5046549;28;20044;-67
2023/10/09 11:32:09;;;;;;;17.67;8.55;;;;;;;;;;5045989;28;20016;-68
2023/10/09 11:34:36;;;;;;;17.45;8.38;;;;;;;;;;5047296;28;20033;-68
2023/10/09 11:39:58;;;;;;;23.65;8.77;;;;;;;;;;5048187;28;20109;-67
2023/10/09 11:45:19;;;;;;;22.40;7.70;;;;;;;;;;5050887;28;20114;-68
2023/10/09 11:47:56;;;;;;;15.63;8.30;;;;;;;;;;5048892;28;20021;-67
2023/10/09 11:50:42;;;;;;;20.48;8.63;;;;;;;;;;5050069;28;20035;-66
2023/10/09 11:55:48;;;;;;;17.98;8.48;;;;;;;;;;5051069;28;20028;-68
2023/10/09 11:58:14;;;;;;;22.73;8.98;;;;;;;;;;5051314;28;20017;-66
2023/10/09 12:00:45;;;;;;;21.67;8.73;;;;;;;;;;5050527;28;20019;-65
2023/10/09 12:03:11;;;;;;;19.25;9.63;;;;;;;;;;5049502;28;20083;-66
2023/10/09 12:05:37;;;;;;;25.08;10.10;;;;;;;;;;5054932;28;20040;-68
2023/10/09 12:08:07;;;;;;;22.48;9.38;;;;;;;;;;5054308;28;20054;-65
2023/10/09 12:10:33;;;;;;;20.55;9.93;;;;;;;;;;5053339;28;20017;-66
2023/10/09 12:12:59;;;;;;;21.67;9.80;;;;;;;;;;5050379;28;20379;-65
2023/10/09 12:15:24;;;;;;;23.63;9.90;;;;;;;;;;5048782;28;20473;-67
2023/10/09 12:17:50;;;;;;;21.05;8.82;;;;;;;;;;5045643;28;20075;-67
2023/10/09 12:20:30;;;;;;;27.70;9.90;;;;;;;;;;5049716;28;20491;-68
2023/10/09 12:22:59;;;;;;;24.42;9.38;;;;;;;;;;5049521;28;20021;-67
2023/10/09 12:25:24;;;;;;;;;;;;;;;;;;5049669;28;20079;-70
2023/10/09 12:27:49;;;;;;;19.67;9.23;;;;;;;;;;5049774;28;19913;-70
2023/10/09 12:30:14;;;;;;;26.48;9.95;;;;;;;;;;5057011;28;20013;-67
2023/10/09 12:32:40;;;;;;;25.73;10.27;;;;;;;;;;5030414;28;20013;-68
2023/10/09 12:35:17;;;;;;;20.27;9.48;;;;;;;;;;5048623;28;20421;-67
2023/10/09 12:37:42;;;;;;;20.25;9.45;;;;;;;;;;5053171;28;20039;-68
2023/10/09 12:40:10;;;;;;;26.17;10.13;;;;;;;;;;5051597;28;20071;-67
2023/10/09 12:42:35;;;;;;;17.67;8.52;;;;;;;;;;5053350;28;20024;-68
2023/10/09 12:45:07;;;;;;;18.90;9.75;;;;;;;;;;5048871;28;20119;-68
2023/10/09 12:47:33;;;;;;;17.30;8.38;;;;;;;;;;5052326;28;20132;-69
2023/10/09 12:49:58;;;;;;;18.55;8.45;;;;;;;;;;5049130;28;20099;-68
2023/10/09 12:52:29;;;;;;;16.10;8.15;;;;;;;;;;5049989;28;20067;-68
2023/10/09 12:54:54;;;;;;;17.52;8.52;;;;;;;;;;5050105;28;20460;-65
2023/10/09 12:57:20;;;;;;;23.63;9.25;;;;;;;;;;5059578;28;20510;-67
2023/10/09 12:59:45;;;;;;;19.67;8.75;;;;;;;;;;5051373;28;20440;-65
2023/10/09 13:02:27;;;;;;;20.25;8.98;;;;;;;;;;5044848;28;20376;-66
2023/10/09 13:04:53;;;;;;;18.02;8.65;;;;;;;;;;5046622;28;20020;-68
2023/10/09 13:07:21;;;;;;;18.75;9.75;;;;;;;;;;5049259;28;20021;-66
2023/10/09 13:10:08;;;;;;;19.38;9.52;;;;;;;;;;5050922;28;20044;-66
2023/10/09 13:12:32;;;;;;;19.38;10.05;;;;;;;;;;5042654;28;20025;-68
2023/10/09 13:14:57;;;;;;;21.08;8.77;;;;;;;;;;5030654;28;20092;-67
2023/10/09 13:17:26;;;;;;;18.77;9.13;;;;;;;;;;5044793;28;20025;-66
2023/10/09 13:19:52;;;;;;;24.02;8.98;;;;;;;;;;5048114;28;20574;-68
2023/10/09 13:22:17;;;;;;;19.52;8.52;;;;;;;;;;5032044;28;20056;-68
2023/10/09 13:24:43;;;;;;;18.67;9.02;;;;;;;;;;5048746;28;20013;-65
2023/10/09 13:27:09;;;;;;;19.10;8.35;;;;;;;;;;5048497;28;20087;-67
2023/10/09 13:29:41;;;;;;;20.73;8.82;;;;;;;;;;5054186;28;20017;-68
2023/10/09 13:32:13;;;;;;;24.08;9.38;;;;;;;;;;5047801;28;20108;-68
2023/10/09 13:34:44;;;;;;;20.58;9.40;;;;;;;;;;5047596;28;20017;-68
2023/10/09 13:37:13;;;;;;;18.65;8.55;;;;;;;;;;5048843;28;20024;-69
2023/10/09 13:39:40;;;;;;;25.63;9.77;;;;;;;;;;5042909;28;20091;-69
2023/10/09 13:42:07;;;;;;;22.42;8.90;;;;;;;;;;5048411;28;20028;-67
2023/10/09 13:44:33;;;;;;;24.35;12.73;;;;;;;;;;5030066;28;20070;-66
2023/10/09 13:47:01;;;;;;;26.90;9.48;;;;;;;;;;5047708;28;20025;-67
2023/10/09 13:49:29;;;;;;;21.40;9.63;;;;;;;;;;5048298;28;20399;-65
2023/10/09 13:51:56;;;;;;;23.55;9.95;;;;;;;;;;5049507;28;20021;-69
2023/10/09 13:54:28;;;;;;;22.02;10.48;;;;;;;;;;5049214;28;20028;-68
2023/10/09 13:56:53;;;;;;;22.23;10.02;;;;;;;;;;5055909;28;20059;-64
2023/10/09 13:59:25;;;;;;;23.88;10.05;;;;;;;;;;5035496;28;20021;-68
2023/10/09 14:01:51;;;;;;;20.80;10.25;;;;;;;;;;5029460;28;20456;-68
2023/10/09 14:04:19;;;;;;;31.17;10.85;;;;;;;;;;5053715;28;20274;-67
2023/10/09 14:06:45;;;;;;;21.05;10.32;;;;;;;;;;5049640;28;20361;-66
2023/10/09 14:09:11;;;;;;;27.45;11.60;;;;;;;;;;5050790;28;20025;-67
2023/10/09 14:11:37;;;;;;;28.00;11.70;;;;;;;;;;5048427;28;20021;-67
2023/10/09 14:14:09;;;;;;;24.73;11.43;;;;;;;;;;5047504;28;20021;-70
2023/10/09 14:16:35;;;;;;;29.08;11.18;;;;;;;;;;5044888;28;20200;-67
2023/10/09 14:19:01;;;;;;;23.60;10.65;;;;;;;;;;5028913;28;20753;-66
2023/10/09 14:21:29;;;;;;;21.48;9.70;;;;;;;;;;5053383;28;20453;-66
2023/10/09 14:23:57;;;;;;;24.80;10.48;;;;;;;;;;5028728;28;20027;-69
2023/10/09 14:26:26;;;;;;;21.52;10.60;;;;;;;;;;5047867;28;20046;-66
2023/10/09 14:28:52;;;;;;;21.83;10.60;;;;;;;;;;5047556;28;20021;-68
2023/10/09 14:31:20;;;;;;;27.13;11.25;;;;;;;;;;5049699;28;20048;-65
2023/10/09 14:33:51;;;;;;;22.97;10.60;;;;;;;;;;5047001;28;20009;-67
2023/10/09 14:36:16;;;;;;;24.95;11.10;;;;;;;;;;5050418;28;20012;-67
2023/10/09 14:38:42;;;;;;;25.90;10.68;;;;;;;;;;5049326;28;20109;-70
2023/10/09 14:41:11;;;;;;;20.45;10.13;;;;;;;;;;5048863;28;20041;-65
2023/10/09 14:43:36;;;;;;;27.90;10.68;;;;;;;;;;5045369;28;20025;-68
2023/10/09 14:46:04;;;;;;;24.88;11.35;;;;;;;;;;5033756;28;20078;-67
2023/10/09 14:48:36;;;;;;;20.50;10.82;;;;;;;;;;5046195;28;20675;-66
2023/10/09 14:51:04;;;;;;;22.13;10.75;;;;;;;;;;5044759;28;20109;-66
2023/10/09 14:53:30;;;;;;;26.30;10.98;;;;;;;;;;5048426;28;20100;-65
2023/10/09 14:56:01;;;;;;;24.15;10.95;;;;;;;;;;5047026;28;20335;-68
2023/10/09 14:58:28;;;;;;;31.73;11.63;;;;;;;;;;5046539;28;20040;-68
2023/10/09 15:00:54;;;;;;;29.67;13.80;;;;;;;;;;5047463;28;20032;-68
2023/10/09 15:03:19;;;;;;;30.08;11.90;;;;;;;;;;5048516;28;20070;-66
2023/10/09 15:05:45;;;;;;;25.77;11.30;;;;;;;;;;5046018;28;20031;-65
2023/10/09 15:08:10;;;;;;;24.38;11.93;;;;;;;;;;5027849;28;20051;-67
2023/10/09 15:10:37;;;;;;;26.20;11.63;;;;;;;;;;5053523;28;20110;-68
2023/10/09 15:13:04;;;;;;;24.63;10.75;;;;;;;;;;5047078;28;20100;-69
2023/10/09 15:15:30;;;;;;;28.55;10.77;;;;;;;;;;5046607;28;20020;-69
2023/10/09 15:17:56;;;;;;;28.65;11.02;;;;;;;;;;5046874;28;20039;-66
2023/10/09 15:20:21;;;;;;;22.58;11.13;;;;;;;;;;5045754;28;20033;-69
2023/10/09 15:22:47;;;;;;;23.30;10.63;;;;;;;;;;5047394;28;20036;-68
2023/10/09 15:25:14;;;;;;;21.63;10.93;;;;;;;;;;5042047;28;20024;-64
2023/10/09 15:27:42;;;;;;;23.60;11.02;;;;;;;;;;5046924;28;20126;-65
2023/10/09 15:30:13;;;;;;;26.98;10.32;;;;;;;;;;5047296;28;20009;-69
2023/10/09 15:32:38;;;;;;;23.08;9.98;;;;;;;;;;5033614;28;20021;-67
2023/10/09 15:35:06;;;;;;;28.25;10.82;;;;;;;;;;5044713;28;20024;-67
2023/10/09 15:37:31;;;;;;;23.30;10.82;;;;;;;;;;5047559;28;20017;-66
2023/10/09 15:39:57;;;;;;;22.80;10.15;;;;;;;;;;5047100;28;20013;-69
2023/10/09 15:42:22;;;;;;;25.55;10.30;;;;;;;;;;5054358;28;20437;-68
2023/10/09 15:44:51;;;;;;;23.58;10.63;;;;;;;;;;5046418;28;20017;-67
2023/10/09 15:47:17;;;;;;;30.75;11.43;;;;;;;;;;5049365;28;20039;-67
2023/10/09 15:49:43;;;;;;;25.02;10.15;;;;;;;;;;5047070;28;20095;-69
2023/10/09 15:52:09;;;;;;;19.65;9.85;;;;;;;;;;5047019;28;20016;-65
2023/10/09 15:54:34;;;;;;;19.83;10.43;;;;;;;;;;5046719;28;20654;-68
2023/10/09 15:57:00;;;;;;;25.92;10.48;;;;;;;;;;5046663;28;20075;-66
2023/10/09 15:59:25;;;;;;;17.85;9.88;;;;;;;;;;5039614;28;20478;-67
2023/10/09 16:01:51;;;;;;;19.25;10.07;;;;;;;;;;5045876;28;20519;-68
2023/10/09 16:04:16;;;;;;;18.63;10.02;;;;;;;;;;5037126;28;20416;-68
2023/10/09 16:06:42;;;;;;;26.30;11.35;;;;;;;;;;5045969;28;20116;-69
2023/10/09 16:09:15;;;;;;;29.85;12.35;;;;;;;;;;5028228;28;20112;-69
2023/10/09 16:11:40;;;;;;;23.25;10.25;;;;;;;;;;5051226;28;20020;-67
2023/10/09 16:14:15;;;;;;;26.83;10.82;;;;;;;;;;5031627;28;20023;-68
2023/10/09 16:16:43;;;;;;;24.65;10.00;;;;;;;;;;5045637;28;20048;-69
2023/10/09 16:19:11;;;;;;;26.80;10.10;;;;;;;;;;5046471;28;20035;-68
2023/10/09 16:21:37;;;;;;;24.52;10.93;;;;;;;;;;5049321;28;20037;-65
2023/10/09 16:24:06;;;;;;;21.50;10.25;;;;;;;;;;5049311;28;20017;-66
2023/10/09 16:26:39;;;;;;;21.90;9.55;;;;;;;;;;5050570;28;20020;-68
2023/10/09 16:29:07;;;;;;;19.50;11.13;;;;;;;;;;5056119;28;20115;-68
2023/10/09 16:31:35;;;;;;;25.45;11.27;;;;;;;;;;5049675;28;20009;-67
2023/10/09 16:34:00;;;;;;;23.80;10.88;;;;;;;;;;5049513;28;20025;-69
2023/10/09 16:36:26;;;;;;;24.83;11.25;;;;;;;;;;5049236;28;20017;-66
2023/10/09 16:38:52;;;;;;;36.47;11.15;;;;;;;;;;5050546;28;20025;-69
2023/10/09 16:41:17;;;;;;;30.92;11.60;;;;;;;;;;5050069;28;20118;-66
2023/10/09 16:43:43;;;;;;;21.95;11.18;;;;;;;;;;5042016;28;20016;-68
2023/10/09 16:46:08;;;;;;;28.67;12.68;;;;;;;;;;5055329;28;20417;-68
2023/10/09 16:48:37;;;;;;;26.60;11.25;;;;;;;;;;5050339;28;20009;-65
2023/10/09 16:51:02;;;;;;;26.48;11.82;;;;;;;;;;5046802;28;20110;-69
2023/10/09 16:53:27;;;;;;;29.58;11.75;;;;;;;;;;5043843;28;20127;-66
2023/10/09 16:55:56;;;;;;;25.45;11.23;;;;;;;;;;5049479;28;20095;-67
2023/10/09 16:58:21;;;;;;;24.13;11.65;;;;;;;;;;5047379;28;20016;-68
2023/10/09 17:00:47;;;;;;;22.55;10.93;;;;;;;;;;5043355;28;20074;-66
2023/10/09 17:03:14;;;;;;;23.98;11.68;;;;;;;;;;5048416;28;20476;-68
2023/10/09 17:05:55;;;;;;;25.20;11.80;;;;;;;;;;5048879;28;20090;-67